Dallas, Texas
Traffic Map
Current Weather Conditions
Dallas, Texas
Few Clouds
Few Clouds
57°
Feels Like: 57°
Wind Chill: 57° Ceiling: Unl
Heat Index: 57° Visibility: 10mi
Dew Point: 20° Wind: 0mph
Humidity: 24% Direction: ° ()
Pressure: 30.42in Gusts: 0mph
Raw Report DataKDAL 272253Z 00000KT 10SM FEW250 14/M07 A3042 RMK AO2 SLP299 FU N DSIPTD T01391067
Traffic Incident Summary
Active as of:
Severity:
Category:
InformationThere was an issue retrieving the traffic information for this location. Please try a different location or try again shortly.
Advertisements
Track Severe Weather on mobile